Terminal Aerodrome Forecast
Issued by NWS

Home | Current Version | Previous Version | Text Only | Print | Product List | Glossary Off
Versions: 1 2 3 4 5 6 7 8 9 10 11 12 13 14 15 16

000
FTUS43 KBIS 011130
TAFJMS
TAF
KJMS 011130Z 0112/0212 VRB03KT P6SM BKN100
     FM011500 15008KT P6SM SKC
     FM012100 19010KT P6SM SKC
     FM020300 23008KT P6SM SKC
     FM020900 32010KT P6SM SCT035 SCT070=

USA.gov is the U.S. government's official web portal to all federal, state and local government web resources and services.